Terminal Aerodrome Forecast
Issued by NWS Topeka, KS

Home | Current Version | Previous Version | Text Only | Print | Product List | Glossary Off
Versions: 1 2 3 4 5 6 7 8 9 10 11 12 13 14 15 16 17 18 19 20 21

000
FTUS43 KTOP 051711 AAA
TAFTOP
TAF AMD
KTOP 051711Z 0517/0612 17012G22KT P6SM VCTS SCT035 BKN040CB
      TEMPO 0517/0519 VRB15G40KT
     FM060100 17011KT P6SM SCT200=

USA.gov is the U.S. government's official web portal to all federal, state and local government web resources and services.